Time;durP1;ratioP1;P1;durP2;ratioP2;P2;SDS_P1;SDS_P2;PMS_P1;PMS_P2;Temp;Humidity;BMP_temperature;BMP_pressure;BME280_temperature;BME280_humidity;BME280_pressure;Samples;Min_cycle;Max_cycle;Signal;HPM_P1;HPM_P2
2023/12/24 00:00:21;;;;;;;2.38;1.10;;;;;;;8.15;72.78;100306.81;2522079;28;20491;-75
2023/12/24 00:01:35;;;;;;;0.50;0.50;;;;;;;8.16;72.53;100293.81;2521688;28;20042;-75
2023/12/24 00:02:48;;;;;;;0.82;0.63;;;;;;;8.15;72.70;100293.81;2521919;28;20057;-75
2023/12/24 00:04:03;;;;;;;1.63;0.95;;;;;;;8.16;72.74;100296.41;2522383;28;20506;-75
2023/12/24 00:05:16;;;;;;;2.13;1.67;;;;;;;8.16;72.92;100304.22;2523730;28;20057;-74
2023/12/24 00:06:31;;;;;;;1.10;0.82;;;;;;;8.18;72.61;100299.84;2524308;28;20045;-75
2023/12/24 00:07:44;;;;;;;1.15;0.73;;;;;;;8.17;72.58;100295.53;2524126;28;20050;-75
2023/12/24 00:08:59;;;;;;;0.77;0.70;;;;;;;8.18;72.38;100294.66;2523968;28;20084;-75
2023/12/24 00:10:12;;;;;;;1.42;1.10;;;;;;;8.20;72.42;100292.06;2523275;28;20430;-75
2023/12/24 00:11:27;;;;;;;1.10;0.88;;;;;;;8.20;72.23;100289.44;2523473;28;20053;-75
2023/12/24 00:12:42;;;;;;;1.27;0.80;;;;;;;8.21;72.25;100286.84;2524119;28;20050;-76
2023/12/24 00:13:56;;;;;;;2.10;0.95;;;;;;;8.21;72.27;100289.47;2523129;28;20096;-76
2023/12/24 00:15:10;;;;;;;1.25;0.80;;;;;;;8.21;72.21;100289.47;2524024;28;20054;-75
2023/12/24 00:16:24;;;;;;;0.85;0.60;;;;;;;8.22;72.34;100285.97;2524045;28;20054;-76
2023/12/24 00:17:38;;;;;;;0.82;0.77;;;;;;;8.23;72.14;100286.84;2523288;28;20042;-75
2023/12/24 00:18:52;;;;;;;1.02;0.65;;;;;;;8.23;72.31;100285.09;2515210;28;20062;-75
2023/12/24 00:20:07;;;;;;;1.50;1.40;;;;;;;8.23;72.06;100282.50;2513927;28;20050;-75
2023/12/24 00:21:21;;;;;;;0.82;0.47;;;;;;;8.24;72.36;100280.78;2513519;28;20447;-75
2023/12/24 00:22:35;;;;;;;1.38;0.85;;;;;;;8.25;72.32;100285.09;2520766;28;20050;-74
2023/12/24 00:23:49;;;;;;;0.75;0.65;;;;;;;8.25;71.79;100285.94;2523526;28;20538;-75
2023/12/24 00:25:04;;;;;;;0.90;0.63;;;;;;;8.25;71.75;100262.56;2513736;28;20137;-74
2023/12/24 00:26:18;;;;;;;0.85;0.60;;;;;;;8.27;71.77;100276.41;2513903;28;20074;-74
2023/12/24 00:27:31;;;;;;;0.75;0.75;;;;;;;8.27;71.95;100284.22;2514041;28;20061;-75
2023/12/24 00:28:49;;;;;;;0.80;0.65;;;;;;;8.27;71.67;100273.81;2513816;28;20057;-75
2023/12/24 00:30:02;;;;;;;0.70;0.70;;;;;;;8.27;71.91;100271.22;2513345;28;20423;-75
2023/12/24 00:31:17;;;;;;;0.60;0.60;;;;;;;8.27;71.67;100271.22;2514173;28;20078;-75
2023/12/24 00:32:30;;;;;;;0.80;0.80;;;;;;;8.26;71.73;100274.69;2514074;28;20094;-75
2023/12/24 00:33:44;;;;;;;0.50;0.50;;;;;;;8.27;71.89;100271.22;2520941;28;20503;-75
2023/12/24 00:34:58;;;;;;;0.63;0.63;;;;;;;8.28;71.78;100270.34;2523771;28;20049;-75
2023/12/24 00:36:12;;;;;;;1.13;0.98;;;;;;;8.28;71.81;100275.53;2523683;28;20052;-74
2023/12/24 00:37:26;;;;;;;0.50;0.50;;;;;;;8.29;71.79;100279.88;2523319;28;20038;-75
2023/12/24 00:38:40;;;;;;;1.30;0.73;;;;;;;8.30;71.83;100275.53;2523668;28;20056;-75
2023/12/24 00:39:54;;;;;;;2.75;1.00;;;;;;;8.30;71.16;100294.59;2523716;28;20395;-75
2023/12/24 00:41:08;;;;;;;1.63;0.88;;;;;;;8.30;71.41;100271.19;2523359;28;20053;-75
2023/12/24 00:42:23;;;;;;;1.05;0.70;;;;;;;8.32;71.47;100276.41;2523834;28;20618;-74
2023/12/24 00:43:38;;;;;;;0.50;0.50;;;;;;;8.32;71.13;100276.41;2523613;28;20049;-75
2023/12/24 00:44:52;;;;;;;1.10;0.90;;;;;;;8.33;71.27;100275.50;2523149;28;20460;-75
2023/12/24 00:46:07;;;;;;;0.52;0.52;;;;;;;8.33;71.44;100288.50;2512878;28;20444;-74
2023/12/24 00:47:20;;;;;;;1.52;0.80;;;;;;;8.34;71.28;100287.66;2513668;28;20054;-75
2023/12/24 00:48:34;;;;;;;1.30;1.00;;;;;;;8.35;71.40;100289.38;2513937;28;20526;-75
2023/12/24 00:49:48;;;;;;;0.98;0.90;;;;;;;8.34;71.31;100291.97;2513459;28;20049;-75
2023/12/24 00:51:04;;;;;;;0.75;0.75;;;;;;;8.34;71.38;100279.88;2513741;28;20057;-74
2023/12/24 00:52:17;;;;;;;1.05;0.70;;;;;;;8.34;71.09;100305.88;2513845;28;20054;-75
2023/12/24 00:53:31;;;;;;;1.48;0.57;;;;;;;8.35;71.11;100291.13;2518873;28;20422;-75
2023/12/24 00:54:45;;;;;;;0.95;0.55;;;;;;;8.36;71.20;100290.22;2523667;28;20474;-75
2023/12/24 00:55:59;;;;;;;0.77;0.60;;;;;;;8.37;70.87;100287.63;2523381;28;20060;-75
2023/12/24 00:57:14;;;;;;;0.90;0.68;;;;;;;8.37;70.88;100276.38;2519850;28;20046;-75
2023/12/24 00:58:27;;;;;;;0.52;0.50;;;;;;;8.37;70.75;100268.59;2513773;28;20423;-75
2023/12/24 00:59:42;;;;;;;1.63;0.90;;;;;;;8.39;70.84;100269.41;2513543;28;20129;-75
2023/12/24 01:00:57;;;;;;;2.72;0.90;;;;;;;8.38;71.03;100286.75;2513614;28;20065;-75
2023/12/24 01:02:11;;;;;;;0.65;0.50;;;;;;;8.39;71.04;100285.00;2512904;28;20073;-75
2023/12/24 01:03:25;;;;;;;0.93;0.60;;;;;;;8.39;70.95;100270.34;2512958;28;20077;-75
2023/12/24 01:04:39;;;;;;;5.90;0.60;;;;;;;8.40;70.88;100276.38;2513848;28;20050;-75
2023/12/24 01:05:52;;;;;;;1.52;0.70;;;;;;;8.41;70.35;100273.75;2513302;28;20055;-75
2023/12/24 01:07:07;;;;;;;1.38;0.55;;;;;;;8.42;70.61;100278.09;2513455;28;20066;-74
2023/12/24 01:08:20;;;;;;;1.10;1.00;;;;;;;8.43;70.77;100271.16;2513915;28;20050;-74
2023/12/24 01:09:36;;;;;;;4.60;1.85;;;;;;;8.42;70.69;100274.66;2519275;28;20042;-75
2023/12/24 01:10:49;;;;;;;9.35;3.08;;;;;;;8.43;70.60;100274.63;2523285;28;20054;-75
2023/12/24 01:12:04;;;;;;;0.20;0.20;;;;;;;8.44;70.54;100272.88;2523393;28;20430;-75
2023/12/24 01:13:19;;;;;;;0.82;0.50;;;;;;;8.44;70.51;100271.16;2522672;28;20383;-75
2023/12/24 01:14:33;;;;;;;2.28;0.80;;;;;;;8.46;70.75;100268.53;2517714;28;20058;-74
2023/12/24 01:15:47;;;;;;;1.95;0.90;;;;;;;8.45;70.37;100278.09;2513001;28;20416;-75
2023/12/24 01:17:02;;;;;;;1.10;0.60;;;;;;;8.46;70.12;100286.75;2513576;28;20065;-74
2023/12/24 01:18:16;;;;;;;1.63;0.82;;;;;;;8.47;70.39;100294.56;2513269;28;20054;-75
2023/12/24 01:19:31;;;;;;;2.10;0.75;;;;;;;8.48;70.13;100282.41;2519004;28;20072;-75
2023/12/24 01:20:44;;;;;;;0.68;0.47;;;;;;;8.49;70.03;100289.31;2516130;28;20565;-75
2023/12/24 01:21:58;;;;;;;0.40;0.40;;;;;;;8.49;70.14;100274.59;2512917;28;20054;-75
2023/12/24 01:23:12;;;;;;;0.70;0.70;;;;;;;8.50;69.92;100278.06;2513045;28;20046;-74
2023/12/24 01:24:27;;;;;;;1.95;0.90;;;;;;;8.50;70.11;100278.91;2513462;28;20495;-75
2023/12/24 01:25:40;;;;;;;1.55;0.73;;;;;;;8.50;70.22;100278.06;2513000;28;20053;-74
2023/12/24 01:26:55;;;;;;;1.35;0.75;;;;;;;8.50;70.30;100280.66;2521960;28;20054;-75
2023/12/24 01:28:08;;;;;;;1.52;0.88;;;;;;;8.48;70.26;100272.84;2523245;28;20418;-75
2023/12/24 01:29:22;;;;;;;0.75;0.75;;;;;;;8.48;70.32;100262.47;2522735;28;20061;-75
2023/12/24 01:30:36;;;;;;;0.70;0.70;;;;;;;8.49;70.03;100273.72;2527340;28;20053;-75
2023/12/24 01:31:50;;;;;;;0.50;0.50;;;;;;;8.49;70.11;100266.81;2517403;28;20055;-74
2023/12/24 01:33:05;;;;;;;0.98;0.60;;;;;;;8.49;70.15;100281.53;2512754;28;20047;-75
2023/12/24 01:34:19;;;;;;;1.40;0.70;;;;;;;8.50;69.42;100271.13;2513487;28;20073;-75
2023/12/24 01:35:33;;;;;;;1.73;0.70;;;;;;;8.50;69.67;100276.31;2518854;28;20045;-75
2023/12/24 01:36:47;;;;;;;3.47;0.75;;;;;;;8.51;69.52;100269.38;2523644;28;20053;-75
2023/12/24 01:38:01;;;;;;;0.77;0.60;;;;;;;8.50;69.73;100255.50;2522734;28;20088;-75
2023/12/24 01:39:19;;;;;;;0.80;0.68;;;;;;;8.51;69.65;100261.56;2523278;28;20128;-75
2023/12/24 01:40:32;;;;;;;0.52;0.47;;;;;;;8.50;69.71;100249.47;2517775;28;20481;-74
2023/12/24 01:41:47;;;;;;;1.33;0.80;;;;;;;8.50;69.71;100246.84;2512787;28;20098;-75
2023/12/24 01:43:01;;;;;;;0.95;0.93;;;;;;;8.49;69.53;100235.59;2522276;28;20061;-75
2023/12/24 01:44:16;;;;;;;0.73;0.60;;;;;;;8.50;69.44;100233.84;2523057;28;20048;-74
2023/12/24 01:45:29;;;;;;;2.58;0.73;;;;;;;8.50;69.57;100236.44;2522846;28;20391;-75
2023/12/24 01:46:45;;;;;;;1.90;0.68;;;;;;;8.51;69.19;100222.56;2522923;28;20042;-76
2023/12/24 01:47:59;;;;;;;1.13;0.68;;;;;;;8.51;69.41;100222.56;2522581;28;20042;-76
2023/12/24 01:49:15;;;;;;;0.68;0.65;;;;;;;8.51;69.34;100227.75;2521878;28;20057;-74
2023/12/24 01:50:28;;;;;;;1.08;1.08;;;;;;;8.50;69.19;100213.91;2523006;28;20042;-75
2023/12/24 01:51:43;;;;;;;1.63;0.90;;;;;;;8.52;69.21;100216.50;2522158;28;20139;-75
2023/12/24 01:52:56;;;;;;;1.88;1.02;;;;;;;8.51;69.13;100214.75;2513348;28;20485;-75
2023/12/24 01:54:11;;;;;;;0.77;0.70;;;;;;;8.50;69.50;100211.31;2511828;28;20042;-74
2023/12/24 01:55:25;;;;;;;1.27;0.80;;;;;;;8.49;69.46;100204.38;2513177;28;20053;-75
2023/12/24 01:56:40;;;;;;;1.38;0.63;;;;;;;8.50;69.43;100200.03;2513082;28;20069;-75
2023/12/24 01:57:53;;;;;;;3.95;1.48;;;;;;;8.50;69.19;100213.91;2512662;28;20066;-74
2023/12/24 01:59:09;;;;;;;1.67;0.68;;;;;;;8.51;69.18;100217.34;2513889;28;20415;-75
2023/12/24 02:00:22;;;;;;;2.00;0.98;;;;;;;8.52;69.36;100219.09;2522767;28;20435;-75
2023/12/24 02:01:37;;;;;;;1.63;0.73;;;;;;;8.52;69.58;100224.31;2522603;28;20046;-75
2023/12/24 02:02:50;;;;;;;0.40;0.40;;;;;;;8.53;69.26;100218.22;2522931;28;20053;-75
2023/12/24 02:04:05;;;;;;;1.25;0.75;;;;;;;8.54;69.39;100216.47;2522631;28;20045;-75
2023/12/24 02:05:20;;;;;;;0.50;0.50;;;;;;;8.54;69.40;100224.28;2522557;28;20503;-75
2023/12/24 02:06:35;;;;;;;0.50;0.50;;;;;;;8.55;69.29;100226.03;2523025;28;20050;-75
2023/12/24 02:07:50;;;;;;;2.10;0.50;;;;;;;8.55;69.39;100223.44;2522869;28;20411;-75
2023/12/24 02:09:05;;;;;;;1.58;1.15;;;;;;;8.55;69.29;100223.44;2522496;28;20134;-74
2023/12/24 02:10:18;;;;;;;3.25;0.70;;;;;;;8.54;69.44;100219.94;2522803;28;20133;-75
2023/12/24 02:11:33;;;;;;;0.70;0.68;;;;;;;8.54;69.13;100226.88;2522800;28;20072;-75
2023/12/24 02:12:46;;;;;;;1.17;0.73;;;;;;;8.55;69.14;100254.63;2515769;28;20050;-75
2023/12/24 02:14:02;;;;;;;0.68;0.55;;;;;;;8.56;69.30;100251.16;2512318;28;20415;-75
2023/12/24 02:15:15;;;;;;;0.77;0.68;;;;;;;8.57;69.09;100255.47;2513097;28;20626;-74
2023/12/24 02:16:35;;;;;;;1.65;0.73;;;;;;;8.57;69.33;100243.34;2518001;28;20048;-75
2023/12/24 02:17:48;;;;;;;1.77;1.23;;;;;;;8.57;69.36;100260.66;2522498;28;20048;-75
2023/12/24 02:19:03;;;;;;;4.95;0.70;;;;;;;8.56;69.28;100272.81;2521319;28;20490;-75
2023/12/24 02:20:17;;;;;;;0.47;0.47;;;;;;;8.54;69.51;100258.94;2512763;28;20046;-75
2023/12/24 02:21:33;;;;;;;0.73;0.60;;;;;;;8.53;69.69;100259.84;2512565;28;20065;-75
2023/12/24 02:22:47;;;;;;;0.80;0.55;;;;;;;8.52;69.98;100250.31;2512986;28;20057;-75
2023/12/24 02:24:01;;;;;;;0.82;0.82;;;;;;;8.48;70.10;100236.44;2512796;28;20061;-75
2023/12/24 02:25:14;;;;;;;1.85;0.80;;;;;;;8.47;70.06;100262.47;2515210;28;20407;-75
2023/12/24 02:26:33;;;;;;;0.68;0.68;;;;;;;8.46;70.29;100273.75;2522691;28;20046;-74
2023/12/24 02:27:50;;;;;;;0.73;0.57;;;;;;;8.43;70.50;100259.03;2521933;28;20053;-75
2023/12/24 02:29:09;;;;;;;0.80;0.60;;;;;;;8.43;70.65;100273.75;2522057;28;20053;-75
2023/12/24 02:30:28;;;;;;;1.50;0.85;;;;;;;8.41;70.63;100265.97;2522781;28;20049;-74
2023/12/24 02:31:42;;;;;;;0.60;0.60;;;;;;;8.40;70.67;100277.25;2522606;28;20423;-74
2023/12/24 02:32:57;;;;;;;1.27;0.75;;;;;;;8.42;70.91;100285.06;2522693;28;20050;-74
2023/12/24 02:34:14;;;;;;;0.88;0.88;;;;;;;8.40;70.74;100276.38;2521946;28;20431;-75
2023/12/24 02:35:33;;;;;;;0.80;0.80;;;;;;;8.39;70.98;100282.41;2522684;28;20046;-75
2023/12/24 02:36:48;;;;;;;0.82;0.60;;;;;;;8.38;71.01;100291.97;2522517;28;20042;-75
2023/12/24 02:38:03;;;;;;;1.15;1.10;;;;;;;8.37;71.11;100281.59;2521667;28;20053;-75
2023/12/24 02:39:17;;;;;;;0.95;0.52;;;;;;;8.35;70.96;100291.97;2522570;28;20049;-75
2023/12/24 02:40:31;;;;;;;1.70;0.80;;;;;;;8.35;70.98;100288.53;2522761;28;20521;-74
2023/12/24 02:41:45;;;;;;;1.27;0.75;;;;;;;8.35;70.99;100288.53;2521993;28;20052;-75
2023/12/24 02:42:59;;;;;;;1.08;0.73;;;;;;;8.33;71.23;100274.66;2522431;28;20059;-75
2023/12/24 02:44:12;;;;;;;0.70;0.70;;;;;;;8.32;71.35;100283.34;2522346;28;20057;-75
2023/12/24 02:45:27;;;;;;;0.60;0.60;;;;;;;8.30;71.49;100273.78;2522234;28;20049;-75
2023/12/24 02:46:40;;;;;;;2.92;0.50;;;;;;;8.30;71.54;100273.78;2516412;28;20638;-75
2023/12/24 02:47:55;;;;;;;0.50;0.50;;;;;;;8.29;71.66;100274.69;2512626;28;20052;-75
2023/12/24 02:49:08;;;;;;;1.02;0.82;;;;;;;8.28;71.57;100278.13;2512313;28;20050;-74
2023/12/24 02:50:23;;;;;;;1.05;0.73;;;;;;;8.28;71.69;100282.47;2512753;28;20590;-75
2023/12/24 02:51:36;;;;;;;2.05;0.80;;;;;;;8.28;71.58;100274.66;2512541;28;20061;-75
2023/12/24 02:52:52;;;;;;;0.90;0.70;;;;;;;8.27;71.49;100273.81;2512744;28;20057;-75
2023/12/24 02:54:05;;;;;;;1.60;0.80;;;;;;;8.26;71.56;100261.69;2511441;28;20526;-75
2023/12/24 02:55:19;;;;;;;1.55;0.60;;;;;;;8.25;71.61;100256.50;2516811;28;20052;-75
2023/12/24 02:56:36;;;;;;;4.60;0.70;;;;;;;8.26;71.58;100269.50;2521940;28;20414;-75
2023/12/24 02:57:50;;;;;;;1.20;1.10;;;;;;;8.27;71.86;100266.00;2522007;28;20038;-75
2023/12/24 02:59:04;;;;;;;0.40;0.40;;;;;;;8.27;71.59;100266.00;2522461;28;20049;-75
2023/12/24 03:00:18;;;;;;;2.15;0.70;;;;;;;8.29;71.69;100260.81;2522316;28;20060;-75
2023/12/24 03:01:32;;;;;;;1.65;1.08;;;;;;;8.29;71.40;100261.69;2521816;28;20042;-75
2023/12/24 03:02:47;;;;;;;0.43;0.43;;;;;;;8.31;71.42;100261.66;2522598;28;20056;-75
2023/12/24 03:04:02;;;;;;;1.05;0.60;;;;;;;8.32;71.48;100263.41;2521529;28;20494;-75
2023/12/24 03:05:17;;;;;;;0.88;0.80;;;;;;;8.33;71.25;100264.25;2512195;28;20054;-74
2023/12/24 03:06:30;;;;;;;3.17;0.70;;;;;;;8.34;70.87;100252.97;2512631;28;20487;-75
2023/12/24 03:07:45;;;;;;;1.00;0.75;;;;;;;8.35;71.08;100265.13;2512265;28;20050;-75
2023/12/24 03:08:59;;;;;;;2.15;2.05;;;;;;;8.36;70.90;100262.50;2512447;28;20050;-75
2023/12/24 03:10:14;;;;;;;1.08;0.85;;;;;;;8.37;70.79;100256.44;2514188;28;20125;-75
2023/12/24 03:11:27;;;;;;;1.33;0.65;;;;;;;8.37;70.87;100261.63;2522348;28;20426;-75
2023/12/24 03:12:42;;;;;;;1.00;0.60;;;;;;;8.38;70.93;100259.91;2522145;28;20046;-75
2023/12/24 03:13:55;;;;;;;1.48;1.38;;;;;;;8.38;70.90;100262.50;2521812;28;20042;-74
2023/12/24 03:15:11;;;;;;;0.98;0.63;;;;;;;8.39;70.59;100259.00;2521786;28;20046;-75
2023/12/24 03:16:25;;;;;;;1.85;0.80;;;;;;;8.40;70.60;100272.03;2522336;28;20534;-75
2023/12/24 03:17:39;;;;;;;2.22;0.70;;;;;;;8.42;70.44;100261.66;2521848;28;20099;-75
2023/12/24 03:18:53;;;;;;;1.20;0.60;;;;;;;8.42;70.55;100259.91;2522277;28;20038;-75
2023/12/24 03:20:09;;;;;;;0.50;0.50;;;;;;;8.43;70.36;100265.97;2522294;28;20060;-75
2023/12/24 03:21:22;;;;;;;0.80;0.65;;;;;;;8.45;70.15;100264.22;2521730;28;20410;-75
2023/12/24 03:22:37;;;;;;;2.75;0.80;;;;;;;8.46;69.98;100243.38;2517074;28;20125;-75
2023/12/24 03:23:50;;;;;;;1.92;0.65;;;;;;;8.48;69.81;100240.78;2519787;28;20049;-75
2023/12/24 03:25:06;;;;;;;1.40;0.52;;;;;;;8.48;70.02;100243.41;2521691;28;20417;-74
2023/12/24 03:26:20;;;;;;;0.73;0.50;;;;;;;8.48;70.03;100239.06;2519539;28;20046;-75
2023/12/24 03:27:35;;;;;;;0.50;0.50;;;;;;;8.48;69.80;100238.19;2512119;28;20458;-75
2023/12/24 03:28:49;;;;;;;0.50;0.50;;;;;;;8.48;70.16;100244.25;2512433;28;20061;-75
2023/12/24 03:30:04;;;;;;;1.85;0.65;;;;;;;8.48;69.76;100239.06;2521269;28;20042;-75
2023/12/24 03:31:17;;;;;;;2.38;0.55;;;;;;;8.48;69.64;100236.44;2512265;28;20054;-75
2023/12/24 03:32:32;;;;;;;0.50;0.45;;;;;;;8.48;69.65;100231.25;2516925;28;20074;-75
2023/12/24 03:33:45;;;;;;;1.88;1.00;;;;;;;8.49;69.90;100227.78;2523839;28;20057;-75
2023/12/24 03:35:00;;;;;;;2.92;0.88;;;;;;;8.48;69.95;100228.66;2522234;28;20046;-75
2023/12/24 03:36:13;;;;;;;1.67;0.85;;;;;;;8.49;69.66;100221.69;2520058;28;20052;-75
2023/12/24 03:37:27;;;;;;;1.50;0.70;;;;;;;8.50;69.48;100224.31;2511809;28;20534;-75
2023/12/24 03:38:41;;;;;;;2.13;0.52;;;;;;;8.50;69.29;100198.31;2512395;28;20423;-75
2023/12/24 03:39:55;;;;;;;0.88;0.60;;;;;;;8.49;69.48;100209.59;2519878;28;20049;-75
2023/12/24 03:41:10;;;;;;;1.30;1.00;;;;;;;8.49;69.39;100204.38;2520175;28;20423;-75
2023/12/24 03:42:25;;;;;;;6.93;0.88;;;;;;;8.50;69.50;100207.84;2512175;28;20494;-75
2023/12/24 03:43:38;;;;;;;0.60;0.60;;;;;;;8.48;69.57;100194.84;2517742;28;20076;-75
2023/12/24 03:44:53;;;;;;;1.02;0.50;;;;;;;8.48;69.72;100191.38;2522469;28;20073;-76
2023/12/24 03:46:06;;;;;;;0.65;0.60;;;;;;;8.48;69.33;100193.97;2521575;28;20414;-75
2023/12/24 03:47:20;;;;;;;1.45;1.35;;;;;;;8.48;69.32;100200.03;2522113;28;20037;-76
2023/12/24 03:48:36;;;;;;;0.85;0.50;;;;;;;8.49;69.27;100182.69;2522329;28;20049;-74
2023/12/24 03:49:50;;;;;;;5.55;1.75;;;;;;;8.49;69.14;100175.78;2521587;28;20056;-76
2023/12/24 03:51:04;;;;;;;0.45;0.45;;;;;;;8.50;69.14;100174.88;2521859;28;20046;-75
2023/12/24 03:52:18;;;;;;;0.85;0.85;;;;;;;8.52;69.21;100182.69;2522240;28;20417;-75
2023/12/24 03:53:31;;;;;;;0.88;0.80;;;;;;;8.51;69.32;100188.75;2521200;28;20049;-76
2023/12/24 03:54:46;;;;;;;1.27;0.60;;;;;;;8.51;69.15;100192.22;2521986;28;20056;-75
2023/12/24 03:55:59;;;;;;;1.33;0.90;;;;;;;8.52;69.04;100180.94;2521922;28;20419;-75
2023/12/24 03:57:15;;;;;;;1.05;0.88;;;;;;;8.54;69.20;100196.53;2521237;28;20050;-75
2023/12/24 03:58:28;;;;;;;0.82;0.63;;;;;;;8.54;69.28;100193.94;2518188;28;20142;-75
2023/12/24 03:59:43;;;;;;;1.10;0.57;;;;;;;8.54;68.86;100191.31;2512394;28;20543;-74
2023/12/24 04:00:56;;;;;;;1.13;1.13;;;;;;;8.55;68.73;100184.41;2512071;28;20053;-75
2023/12/24 04:02:11;;;;;;;2.45;0.70;;;;;;;8.55;68.94;100187.88;2511654;28;20043;-76
2023/12/24 04:03:24;;;;;;;1.05;0.73;;;;;;;8.56;69.05;100183.53;2515588;28;20084;-75
2023/12/24 04:04:39;;;;;;;1.20;1.10;;;;;;;8.55;68.98;100185.25;2516970;28;20439;-75
2023/12/24 04:05:52;;;;;;;0.65;0.60;;;;;;;8.56;69.02;100181.78;2511874;28;20053;-75
2023/12/24 04:07:06;;;;;;;0.95;0.60;;;;;;;8.56;68.86;100176.56;2511462;28;20042;-75
2023/12/24 04:08:20;;;;;;;0.50;0.50;;;;;;;8.57;68.69;100186.13;2512052;28;20058;-76
2023/12/24 04:09:34;;;;;;;1.30;0.68;;;;;;;8.59;68.68;100178.28;2511884;28;20046;-75
2023/12/24 04:10:47;;;;;;;0.57;0.57;;;;;;;8.58;68.86;100180.03;2512026;28;20050;-76
2023/12/24 04:12:02;;;;;;;3.22;0.73;;;;;;;8.59;68.74;100179.16;2512274;28;20065;-75
2023/12/24 04:13:17;;;;;;;3.97;1.08;;;;;;;8.59;68.49;100186.09;2511136;28;20050;-75
2023/12/24 04:14:31;;;;;;;0.95;0.93;;;;;;;8.58;68.58;100180.03;2512050;28;20074;-76
2023/12/24 04:15:44;;;;;;;0.82;0.68;;;;;;;8.59;68.80;100181.75;2512241;28;20042;-75
2023/12/24 04:17:01;;;;;;;1.23;0.70;;;;;;;8.59;68.75;100167.88;2512037;28;20050;-75
2023/12/24 04:18:14;;;;;;;1.65;0.70;;;;;;;8.59;68.60;100178.28;2513733;28;20047;-75
2023/12/24 04:19:29;;;;;;;1.55;0.93;;;;;;;8.59;68.78;100186.09;2521885;28;20655;-75
2023/12/24 04:20:42;;;;;;;0.77;0.60;;;;;;;8.57;68.63;100167.91;2521920;28;20050;-76
2023/12/24 04:21:57;;;;;;;0.80;0.60;;;;;;;8.59;68.99;100179.16;2521527;28;20392;-76
2023/12/24 04:23:10;;;;;;;2.75;0.60;;;;;;;8.58;68.84;100174.84;2521905;28;20045;-76
2023/12/24 04:24:24;;;;;;;1.33;0.60;;;;;;;8.57;68.83;100164.44;2521982;28;20368;-76
2023/12/24 04:25:38;;;;;;;1.10;0.90;;;;;;;8.56;69.05;100163.56;2521530;28;20042;-76
2023/12/24 04:26:52;;;;;;;1.20;0.77;;;;;;;8.55;69.22;100156.66;2521766;28;20050;-75
2023/12/24 04:28:06;;;;;;;0.70;0.70;;;;;;;8.55;69.25;100167.06;2521688;28;20049;-76
2023/12/24 04:29:21;;;;;;;1.08;0.70;;;;;;;8.55;69.32;100167.06;2521535;28;20384;-75
2023/12/24 04:30:35;;;;;;;1.08;0.88;;;;;;;8.54;69.10;100165.31;2522040;28;20050;-75
2023/12/24 04:31:49;;;;;;;2.42;0.93;;;;;;;8.54;69.28;100159.25;2522086;28;20438;-75
2023/12/24 04:33:03;;;;;;;1.70;1.60;;;;;;;8.53;69.15;100153.19;2513357;28;20051;-76
2023/12/24 04:34:18;;;;;;;1.98;0.82;;;;;;;8.51;69.53;100163.59;2511801;28;20061;-76
2023/12/24 04:35:31;;;;;;;0.60;0.50;;;;;;;8.51;69.55;100155.78;2512119;28;20046;-75
2023/12/24 04:36:45;;;;;;;1.58;0.60;;;;;;;8.50;69.58;100146.28;2511997;28;20423;-76
2023/12/24 04:37:59;;;;;;;1.25;0.60;;;;;;;8.50;69.39;100141.09;2511608;28;20046;-76
2023/12/24 04:39:14;;;;;;;0.50;0.50;;;;;;;8.50;69.63;100151.47;2512158;28;20278;-75
2023/12/24 04:40:27;;;;;;;1.92;0.70;;;;;;;8.50;69.39;100141.09;2512050;28;20411;-75
2023/12/24 04:41:41;;;;;;;1.35;0.70;;;;;;;8.49;69.59;100141.97;2511577;28;20049;-76
2023/12/24 04:42:55;;;;;;;2.75;0.82;;;;;;;8.50;69.59;100145.44;2511936;28;20134;-76
2023/12/24 04:44:09;;;;;;;3.75;0.60;;;;;;;8.49;69.63;100143.69;2511873;28;20052;-76
2023/12/24 04:45:24;;;;;;;1.20;0.98;;;;;;;8.48;69.94;100160.16;2511183;28;20466;-75
2023/12/24 04:46:42;;;;;;;0.80;0.70;;;;;;;8.48;69.92;100152.38;2511696;28;20046;-76
2023/12/24 04:47:58;;;;;;;5.60;1.23;;;;;;;8.47;70.13;100145.47;2511723;28;20484;-76
2023/12/24 04:49:13;;;;;;;4.10;0.80;;;;;;;8.46;70.20;100156.72;2511213;28;20499;-75
2023/12/24 04:50:26;;;;;;;0.63;0.60;;;;;;;8.46;70.17;100143.72;2511727;28;20046;-75
2023/12/24 04:51:40;;;;;;;1.15;0.82;;;;;;;8.46;70.08;100147.16;2512966;28;20050;-76
2023/12/24 04:52:55;;;;;;;1.27;0.70;;;;;;;8.46;70.28;100146.31;2513444;28;20046;-76
2023/12/24 04:54:08;;;;;;;0.70;0.70;;;;;;;8.45;70.22;100140.25;2521938;28;20507;-75
2023/12/24 04:55:23;;;;;;;0.63;0.63;;;;;;;8.44;70.30;100132.47;2523415;28;20057;-75
2023/12/24 04:56:36;;;;;;;2.42;0.68;;;;;;;8.43;70.20;100126.41;2523224;28;20050;-75
2023/12/24 04:57:51;;;;;;;2.45;0.93;;;;;;;8.43;70.33;100130.75;2523127;28;20065;-75
2023/12/24 04:59:04;;;;;;;2.38;0.80;;;;;;;8.42;70.33;100119.50;2522418;28;20054;-75
2023/12/24 05:00:19;;;;;;;1.75;0.95;;;;;;;8.43;70.65;100120.34;2523276;28;20422;-75
2023/12/24 05:01:33;;;;;;;4.38;2.13;;;;;;;8.42;70.55;100121.22;2523008;28;20045;-75
2023/12/24 05:02:48;;;;;;;0.68;0.68;;;;;;;8.42;70.65;100116.03;2522895;28;20050;-75
2023/12/24 05:04:03;;;;;;;1.90;0.50;;;;;;;8.41;70.77;100125.53;2523157;28;20103;-76
2023/12/24 05:05:17;;;;;;;0.65;0.65;;;;;;;8.40;70.87;100120.38;2523128;28;20054;-74
2023/12/24 05:06:30;;;;;;;0.88;0.60;;;;;;;8.39;70.63;100124.72;2523650;28;20046;-75
2023/12/24 05:07:45;;;;;;;3.05;0.80;;;;;;;8.37;70.92;100120.38;2532922;22;20046;-81
2023/12/24 05:08:58;;;;;;;1.50;0.63;;;;;;;8.36;71.10;100105.63;2516184;28;20054;-81
2023/12/24 05:10:13;;;;;;;1.33;1.13;;;;;;;8.36;71.11;100121.22;2506529;28;20491;-79
2023/12/24 05:11:26;;;;;;;0.60;0.50;;;;;;;8.33;71.23;100126.47;2506647;28;20046;-80
2023/12/24 05:12:40;;;;;;;1.05;0.95;;;;;;;8.31;71.26;100131.66;2511095;28;20056;-81
2023/12/24 05:13:54;;;;;;;1.60;0.73;;;;;;;8.30;71.19;100124.75;2515930;28;20061;-79
2023/12/24 05:15:09;;;;;;;1.80;1.05;;;;;;;8.28;71.59;100118.69;2515506;28;20057;-80
2023/12/24 05:16:22;;;;;;;1.40;0.75;;;;;;;8.27;71.46;100135.16;2506133;28;20051;-81
2023/12/24 05:17:38;;;;;;;0.90;0.60;;;;;;;8.25;71.66;100131.72;2505495;28;20053;-80
2023/12/24 05:18:51;;;;;;;3.45;0.73;;;;;;;8.23;71.87;100159.44;2512587;28;20054;-83
2023/12/24 05:20:07;;;;;;;2.33;0.70;;;;;;;8.21;71.79;100141.28;2508039;28;20053;-80
2023/12/24 05:21:20;;;;;;;1.10;1.00;;;;;;;8.21;71.87;100137.78;2513303;28;20058;-78
2023/12/24 05:22:34;;;;;;;0.70;0.70;;;;;;;8.20;71.93;100123.94;2506760;28;20053;-79
2023/12/24 05:23:48;;;;;;;0.73;0.73;;;;;;;8.19;71.99;100148.22;2506198;28;20419;-81
2023/12/24 05:25:03;;;;;;;1.05;0.82;;;;;;;8.19;72.06;100121.38;2514244;28;20046;-80
2023/12/24 05:26:16;;;;;;;2.35;0.50;;;;;;;8.18;72.01;100130.88;2514159;28;20050;-80
2023/12/24 05:27:30;;;;;;;0.77;0.68;;;;;;;8.19;72.10;100143.03;2507000;28;20657;-80
2023/12/24 05:28:44;;;;;;;0.50;0.32;;;;;;;8.20;72.10;100134.34;2506111;28;20054;-80
2023/12/24 05:29:58;;;;;;;3.75;0.60;;;;;;;8.21;71.86;100135.19;2505506;28;20043;-79
2023/12/24 05:31:12;;;;;;;1.15;0.82;;;;;;;8.21;71.82;100128.28;2507655;28;20051;-80
2023/12/24 05:32:26;;;;;;;0.60;0.60;;;;;;;8.23;71.84;100138.66;2513071;28;20492;-79
2023/12/24 05:33:41;;;;;;;0.77;0.47;;;;;;;8.23;71.63;100138.66;2510682;28;20046;-80
2023/12/24 05:34:55;;;;;;;0.88;0.88;;;;;;;8.24;71.66;100130.84;2509437;28;20078;-80
2023/12/24 05:36:12;;;;;;;0.65;0.43;;;;;;;8.27;71.45;100132.56;2515011;28;20047;-79
2023/12/24 05:37:26;;;;;;;0.98;0.70;;;;;;;8.28;71.39;100142.94;2509177;28;20133;-80
2023/12/24 05:38:39;;;;;;;2.58;1.00;;;;;;;8.30;71.17;100135.13;2501437;28;20046;-77
2023/12/24 05:39:54;;;;;;;0.65;0.65;;;;;;;8.32;71.21;100132.53;2499108;28;20053;-78
2023/12/24 05:41:08;;;;;;;1.08;0.57;;;;;;;8.33;71.09;100134.25;2496849;28;20047;-79
2023/12/24 05:42:23;;;;;;;0.98;0.60;;;;;;;8.34;71.31;100121.25;2513779;28;20487;-79
2023/12/24 05:43:36;;;;;;;0.88;0.65;;;;;;;8.35;71.21;100135.13;2505745;28;20077;-78
2023/12/24 05:44:51;;;;;;;1.00;0.70;;;;;;;8.36;71.01;100116.03;2512144;28;20047;-79
2023/12/24 05:46:04;;;;;;;0.52;0.50;;;;;;;8.37;71.19;100128.16;2507272;28;20050;-78
2023/12/24 05:47:18;;;;;;;0.80;0.73;;;;;;;8.39;70.91;100113.41;2507403;28;20050;-79
2023/12/24 05:48:32;;;;;;;2.00;0.82;;;;;;;8.39;70.97;100116.91;2512528;28;20062;-79
2023/12/24 05:49:48;;;;;;;1.10;0.60;;;;;;;8.40;70.77;100108.22;2511071;28;20508;-79